Historyczne dane pomiarowe

Dodano dane terminowe – wersja testowa.

Dane z okresu 1951-2019

Wersja bazy: 1.34 [2019-03-16, lista zmian], aktualizacja planowana na 2019-04-15

Dane meteo z obszaru Polski uzyskane na podstawie danych udostępnionych przez Instytut Meteorologii i Gospodarki Wodnej – Państwowy Instytut Badawczy.

 

Wybierz Datę:    

       

TemperaturaWilgotnośćWiatrCiśnienieOpadyŚniegCzas trwania zjawisk
 Stacja t tx tn tng RH VA  wxwx mslp ppp RRR   cm mm wxwxwxwxwxwxwx
1961-08-14 14.8 21.2 8.6--- 2.3 1.3---- 0.0------------
1961-08-13 13.3 18.0 11.1--- 6.3 3.0---- 4.4------------
1961-08-12 18.5 23.0 15.4--- 7.7 1.3---- 1.5------------
1961-08-11 22.6 30.9 17.0--- 4.3 1.0---- 0.1------------
1961-08-10 22.1 27.0 17.7--- 4.7 2.0---- 2.0------------
1961-08-09 21.6 30.3 13.7--- 0.0 1.0---- 1.7------------
1961-08-08 18.9 24.3 14.9--- 4.3 0.7---- 0.0------------
1961-08-07 22.7 31.8 16.3--- 4.0 2.0---- 1.5------------
1961-08-06 23.3 30.7 11.8--- 0.7 3.0---- 0.0------------
1961-08-05 17.8 24.5 13.8--- 4.7 1.7---- 0.0------------
1961-08-04 15.9 22.6 8.3--- 4.7 1.0---- 0.0------------
1961-08-03 18.2 25.6 12.3--- 5.0 2.3---- 0.8------------
1961-08-02 19.0 25.9 7.6--- 0.0 1.7---- 0.0------------
1961-08-01 13.7 18.7 11.4--- 4.3 4.7---- 0.0------------
1961-07-31 13.9 18.3 12.4--- 6.0 6.7---- 0.8------------
1961-07-30 14.1 14.9 12.6--- 8.0 3.0---- 21.4------------
1961-07-29 14.3 16.9 13.8--- 8.0 2.3---- 9.9------------
1961-07-28 19.5 27.5 16.0--- 5.7 2.3---- 13.0------------
1961-07-27 21.0 28.1 12.4--- 4.7 3.0---- 0.2------------
1961-07-26 17.4 20.7 11.4--- 4.7 2.3---- 0.0------------
1961-07-25 14.7 21.0 9.4--- 6.3 2.3---- 0.0------------
1961-07-24 14.0 20.7 11.3--- 6.0 1.0---- 0.0------------
1961-07-23 16.1 21.2 10.7--- 5.7 1.7---- 0.0------------
1961-07-22 15.4 22.0 12.1--- 6.0 2.3---- 0.4------------
1961-07-21 15.8 23.4 9.8--- 4.7 2.7---- 2.5------------
1961-07-20 15.5 23.6 7.2--- 6.0 0.7---- 0.0------------
1961-07-19 15.0 23.2 7.2--- 2.7 1.0---- 0.0------------
1961-07-18 12.5 17.6 7.7--- 7.0 1.0---- 0.1------------
1961-07-17 15.2 25.6 8.5--- 4.0 1.0---- 7.5------------
1961-07-16 15.3 24.0 8.2--- 5.3 3.3---- 0.0------------
1961-07-15 15.8 24.3 7.1--- 4.7 1.7---- 0.2------------
1961-07-14 15.2 22.6 11.6--- 4.3 2.7---- 0.0------------
1961-07-13 21.2 29.6 11.9--- 4.0 4.0---- 1.4------------
1961-07-12 18.2 27.0 7.6--- 3.3 1.7---- 0.1------------
1961-07-11 14.6 23.1 7.6--- 4.3 2.7---- 0.0------------
1961-07-10 14.5 20.0 9.7--- 6.3 3.7---- 0.3------------
1961-07-09 16.9 24.2 6.9--- 5.7 3.3---- 0.0------------
1961-07-08 14.7 21.0 7.8--- 3.0 2.0---- 0.0------------
1961-07-07 13.4 20.0 8.4--- 4.0 2.7---- 1.0------------
1961-07-06 14.3 20.0 4.8--- 3.0 3.7---- 0.0------------
1961-07-05 15.0 21.9 11.2--- 4.3 2.7---- 0.0------------
1961-07-04 21.9 29.6 14.8--- 3.7 3.3---- 0.3------------
1961-07-03 21.7 31.2 10.3--- 0.0 0.7---- 0.0------------
1961-07-02 20.2 28.4 9.2--- 0.0 1.0---- 0.0------------
1961-07-01 17.5 26.5 9.6--- 1.3 2.7---- 0.0------------
1961-06-30 18.1 25.8 7.6--- 0.3 2.3---- 0.0------------
1961-06-29 14.1 20.8 6.8--- 4.7 2.0---- 0.0------------
1961-06-28 13.7 23.6 10.1--- 5.3 4.0---- 26.0------------
1961-06-27 24.8 32.8 15.7--- 2.7 5.7---- 1.5------------
1961-06-26 21.7 31.0 11.9--- 3.0 2.0---- 0.4------------
1961-06-25 20.3 29.0 9.9--- 0.0 3.7---- 0.0------------
1961-06-24 16.7 26.0 9.5--- 2.3 4.7---- 0.0------------
1961-06-23 15.9 22.8 13.4--- 6.3 2.3---- 9.9------------
1961-06-22 16.8 22.9 7.9--- 1.0 2.7---- 0.0------------
1961-06-21 15.1 24.1 4.3--- 3.0 1.7---- 0.4------------
1961-06-20 13.5 22.3 5.6--- 2.7 3.3---- 0.0------------
1961-06-19 17.5 23.6 12.6--- 5.3 2.0---- 0.0------------
1961-06-18 18.3 25.6 8.9--- 4.0 2.0---- 0.0------------
1961-06-17 16.1 23.6 7.6--- 2.3 4.0---- 0.0------------
1961-06-16 13.0 18.5 9.4--- 7.0 3.0---- 0.0------------
1070.6 ms

 

Źródłem pochodzenia danych jest Instytut Meteorologii i Gospodarki Wodnej – Państwowy Instytut Badawczy. Dane Instytutu Meteorologii i Gospodarki Wodnej – Państwowego Instytutu Badawczego zostały przetworzone.

Dane źródłowe można odnaleźć na stronie https://dane.imgw.pl